createdAt,value
2019-04-16T00:04:49.595Z,4.53
2019-04-16T00:10:04.927Z,4.40
2019-04-16T00:15:06.719Z,4.47
2019-04-16T00:20:08.602Z,4.03
2019-04-16T00:25:10.316Z,4.57
2019-04-16T00:30:13.840Z,4.20
2019-04-16T00:35:16.290Z,4.80
2019-04-16T00:40:18.055Z,4.63
2019-04-16T00:45:19.738Z,4.30
2019-04-16T00:50:21.364Z,4.47
2019-04-16T00:55:22.963Z,4.80
2019-04-16T01:00:24.614Z,4.60
2019-04-16T01:05:26.163Z,4.23
2019-04-16T01:10:27.722Z,4.83
2019-04-16T01:15:31.901Z,4.60
2019-04-16T01:20:32.761Z,4.30
2019-04-16T01:25:34.445Z,4.90
2019-04-16T01:30:48.781Z,4.90
2019-04-16T01:35:59.269Z,4.80
2019-04-16T01:41:02.987Z,4.50
2019-04-16T01:46:04.545Z,4.70
2019-04-16T01:51:06.131Z,5.03
2019-04-16T01:56:07.692Z,5.33
2019-04-16T02:01:11.164Z,5.47
2019-04-16T02:06:12.827Z,4.13
2019-04-16T02:11:14.372Z,5.20
2019-04-16T02:16:15.949Z,4.97
2019-04-16T02:21:17.522Z,4.83
2019-04-16T02:26:20.510Z,4.97
2019-04-16T02:31:22.593Z,5.43
2019-04-16T02:36:24.166Z,4.93
2019-04-16T02:41:25.731Z,5.00
2019-04-16T02:46:32.301Z,5.73
2019-04-16T02:51:41.343Z,5.73
2019-04-16T02:57:15.433Z,5.80
2019-04-16T03:02:35.344Z,5.10
2019-04-16T03:07:36.911Z,5.53
2019-04-16T03:12:38.672Z,5.80
2019-04-16T03:17:44.815Z,7.20
2019-04-16T03:22:46.471Z,6.73
2019-04-16T03:27:48.009Z,5.17
2019-04-16T03:32:50.256Z,5.43
2019-04-16T03:37:51.830Z,6.03
2019-04-16T03:42:53.424Z,8.67
2019-04-16T03:47:55.009Z,9.90
2019-04-16T03:52:56.596Z,8.00
2019-04-16T03:57:58.255Z,7.10
2019-04-16T04:02:59.826Z,6.33
2019-04-16T04:08:01.490Z,6.37
2019-04-16T04:13:04.902Z,7.03
2019-04-16T04:18:07.901Z,6.10
2019-04-16T04:23:10.181Z,6.10
2019-04-16T04:28:11.766Z,6.17
2019-04-16T04:33:33.007Z,6.60
2019-04-16T04:38:37.446Z,5.50
2019-04-16T04:43:38.369Z,5.80
2019-04-16T04:48:39.924Z,5.70
2019-04-16T04:53:41.627Z,7.00
2019-04-16T04:58:43.216Z,5.73
2019-04-16T05:03:55.925Z,5.30
2019-04-16T05:09:00.224Z,5.70
2019-04-16T05:14:00.967Z,5.53
2019-04-16T05:19:02.530Z,5.73
2019-04-16T05:24:04.196Z,6.10
2019-04-16T05:29:16.519Z,6.00
2019-04-16T05:34:18.116Z,6.13
2019-04-16T05:39:19.202Z,8.10
2019-04-16T05:44:20.827Z,8.10
2019-04-16T05:49:25.644Z,6.60
2019-04-16T05:54:38.545Z,6.07
2019-04-16T05:59:40.125Z,5.53
2019-04-16T06:04:41.681Z,6.70
2019-04-16T06:09:44.437Z,5.87
2019-04-16T06:14:54.013Z,6.93
2019-04-16T06:20:19.178Z,7.87
2019-04-16T06:25:33.828Z,6.93
2019-04-16T06:30:57.990Z,6.00
2019-04-16T06:36:07.784Z,6.37
2019-04-16T06:41:13.156Z,6.40
2019-04-16T06:46:39.471Z,6.00
2019-04-16T06:52:08.223Z,6.10
2019-04-16T06:57:42.943Z,6.60
2019-04-16T07:03:19.765Z,6.00
2019-04-16T07:08:37.397Z,6.43
2019-04-16T07:13:33.905Z,6.33
2019-04-16T07:18:38.225Z,6.43
2019-04-16T07:23:39.111Z,6.57
2019-04-16T07:28:58.570Z,6.10
2019-04-16T07:34:29.992Z,6.50
2019-04-16T07:39:46.453Z,6.50
2019-04-16T07:44:56.070Z,7.77
2019-04-16T07:50:06.760Z,5.93
2019-04-16T07:55:37.277Z,6.57
2019-04-16T08:00:41.416Z,6.10
2019-04-16T08:05:42.310Z,5.80
2019-04-16T08:10:43.854Z,6.17
2019-04-16T08:15:45.524Z,5.83
2019-04-16T08:21:00.519Z,5.57
2019-04-16T08:25:58.703Z,6.47
2019-04-16T08:30:53.991Z,6.17
2019-04-16T08:35:55.576Z,5.97
2019-04-16T08:40:57.110Z,6.27
2019-04-16T08:45:58.835Z,5.87
2019-04-16T08:51:00.513Z,6.03
2019-04-16T08:56:02.149Z,6.63
2019-04-16T09:01:05.216Z,6.60
2019-04-16T09:06:06.881Z,6.50
2019-04-16T09:11:21.817Z,7.07
2019-04-16T09:16:11.884Z,7.23
2019-04-16T09:21:13.432Z,6.30
2019-04-16T09:26:37.420Z,6.50
2019-04-16T09:32:01.558Z,7.73
2019-04-16T09:37:19.163Z,6.97
2019-04-16T09:42:20.842Z,5.80
2019-04-16T09:47:22.417Z,6.80
2019-04-16T09:52:24.223Z,6.73
2019-04-16T09:57:30.907Z,6.53
2019-04-16T10:02:32.480Z,7.17
2019-04-16T10:07:34.435Z,6.70
2019-04-16T10:12:35.999Z,6.77
2019-04-16T10:17:38.425Z,7.73
2019-04-16T10:22:40.059Z,7.70
2019-04-16T10:27:43.611Z,7.93
2019-04-16T10:32:45.201Z,7.73
2019-04-16T10:37:46.744Z,7.77
2019-04-16T10:43:23.115Z,7.40
2019-04-16T10:48:44.319Z,7.33
2019-04-16T10:53:54.774Z,7.33
2019-04-16T10:59:10.432Z,7.83
2019-04-16T11:04:16.945Z,7.20
2019-04-16T11:09:18.531Z,7.33
2019-04-16T11:14:20.081Z,7.75
2019-04-16T11:19:21.653Z,7.67
2019-04-16T11:24:23.332Z,7.95
2019-04-16T11:29:24.895Z,8.00
2019-04-16T11:34:26.575Z,7.92
2019-04-16T11:39:28.116Z,7.53
2019-04-16T11:44:29.775Z,7.97
2019-04-16T11:49:31.328Z,7.62
2019-04-16T11:54:32.965Z,7.15
2019-04-16T11:59:37.907Z,9.08
2019-04-16T12:05:12.648Z,8.10
2019-04-16T12:10:34.023Z,8.10
2019-04-16T12:15:55.175Z,7.05
2019-04-16T12:21:00.836Z,7.95
2019-04-16T12:26:31.287Z,7.70
2019-04-16T12:31:51.115Z,8.53
2019-04-16T12:37:10.700Z,8.65
2019-04-16T12:42:18.739Z,8.35
2019-04-16T12:47:38.989Z,7.92
2019-04-16T12:52:52.003Z,7.42
2019-04-16T12:58:02.598Z,8.03
2019-04-16T13:03:22.516Z,8.18
2019-04-16T13:08:31.162Z,8.38
2019-04-16T13:13:51.110Z,7.70
2019-04-16T13:19:21.214Z,9.75
2019-04-16T13:24:35.901Z,8.13
2019-04-16T13:29:37.476Z,8.15
2019-04-16T13:34:39.229Z,7.25
2019-04-16T13:40:03.203Z,7.87
2019-04-16T13:45:17.569Z,7.50
2019-04-16T13:50:22.888Z,7.95
2019-04-16T13:55:44.641Z,7.40
2019-04-16T14:00:51.508Z,6.85
2019-04-16T14:05:53.073Z,7.33
2019-04-16T14:10:54.635Z,7.72
2019-04-16T14:15:56.301Z,7.85
2019-04-16T14:20:57.992Z,7.90
2019-04-16T14:25:59.591Z,7.97
2019-04-16T14:31:01.347Z,7.17
2019-04-16T14:36:04.159Z,6.92
2019-04-16T14:41:06.035Z,7.22
2019-04-16T14:46:09.266Z,7.37
2019-04-16T14:51:11.256Z,7.03
2019-04-16T14:56:19.732Z,6.67
2019-04-16T15:01:39.477Z,6.53
2019-04-16T15:07:03.933Z,7.17
2019-04-16T15:12:34.762Z,6.33
2019-04-16T15:17:45.583Z,6.62
2019-04-16T15:23:06.828Z,6.60
2019-04-16T15:28:21.390Z,6.37
2019-04-16T15:33:39.780Z,6.85
2019-04-16T15:39:02.894Z,7.17
2019-04-16T15:44:13.724Z,6.87
2019-04-16T15:49:30.326Z,6.87
2019-04-16T15:54:50.265Z,6.35
2019-04-16T16:00:17.109Z,7.60
2019-04-16T16:05:29.323Z,7.47
2019-04-16T16:10:37.231Z,7.55
2019-04-16T16:15:40.490Z,7.37
2019-04-16T16:20:42.248Z,7.58
2019-04-16T16:25:43.810Z,7.20
2019-04-16T16:30:45.387Z,6.90
2019-04-16T16:35:57.716Z,7.10
2019-04-16T16:40:50.590Z,7.25
2019-04-16T16:46:14.614Z,6.60
2019-04-16T16:51:16.401Z,7.78
2019-04-16T16:56:37.615Z,6.85
2019-04-16T17:01:47.267Z,7.53
2019-04-16T17:06:48.817Z,6.87
2019-04-16T17:11:50.505Z,6.58
2019-04-16T17:16:52.055Z,6.40
2019-04-16T17:21:54.192Z,6.62
2019-04-16T17:26:55.773Z,6.50
2019-04-16T17:31:57.448Z,5.90
2019-04-16T17:36:59.000Z,6.12
2019-04-16T17:42:05.157Z,6.85
2019-04-16T17:47:41.722Z,5.97
2019-04-16T17:52:48.183Z,5.95
2019-04-16T17:58:06.339Z,5.65
2019-04-16T18:03:39.919Z,6.03
2019-04-16T18:08:56.771Z,5.60
2019-04-16T18:14:32.870Z,5.47
2019-04-16T18:20:03.141Z,5.37
2019-04-16T18:25:21.522Z,5.30
2019-04-16T18:30:41.157Z,5.57
2019-04-16T18:35:53.072Z,5.30
2019-04-16T18:41:17.150Z,5.50
2019-04-16T18:46:23.925Z,5.83
2019-04-16T18:51:32.867Z,6.23
2019-04-16T18:56:30.872Z,5.93
2019-04-16T19:01:33.453Z,5.47
2019-04-16T19:06:35.147Z,8.90
2019-04-16T19:11:36.834Z,6.77
2019-04-16T19:16:38.490Z,6.50
2019-04-16T19:21:42.392Z,5.90
2019-04-16T19:26:43.840Z,6.47
2019-04-16T19:31:45.530Z,6.50
2019-04-16T19:36:47.204Z,7.33
2019-04-16T19:41:48.773Z,6.80
2019-04-16T19:46:52.476Z,9.53
2019-04-16T19:51:54.125Z,6.90
2019-04-16T19:56:55.705Z,6.43
2019-04-16T20:01:59.808Z,7.37
2019-04-16T20:07:01.806Z,6.67
2019-04-16T20:12:03.684Z,7.23
2019-04-16T20:17:05.268Z,7.60
2019-04-16T20:22:06.843Z,7.47
2019-04-16T20:27:08.419Z,7.27
2019-04-16T20:32:10.010Z,7.50
2019-04-16T20:37:11.606Z,7.73
2019-04-16T20:42:13.351Z,7.80
2019-04-16T20:47:15.013Z,6.80
2019-04-16T20:52:16.555Z,7.33
2019-04-16T20:57:18.150Z,6.53
2019-04-16T21:02:20.020Z,7.67
2019-04-16T21:07:21.706Z,7.43
2019-04-16T21:12:23.289Z,6.83
2019-04-16T21:17:24.859Z,7.40
2019-04-16T21:22:27.836Z,6.70
2019-04-16T21:27:32.411Z,7.33
2019-04-16T21:32:58.889Z,6.53
2019-04-16T21:38:18.706Z,6.57
2019-04-16T21:43:20.269Z,6.87
2019-04-16T21:48:23.843Z,6.80
2019-04-16T21:53:27.923Z,7.10
2019-04-16T21:58:29.010Z,7.23
2019-04-16T22:03:31.472Z,6.87
2019-04-16T22:08:33.159Z,6.90
2019-04-16T22:13:34.756Z,6.63
2019-04-16T22:18:37.669Z,6.50
2019-04-16T22:29:59.015Z,6.40
2019-04-16T22:35:00.601Z,6.27
2019-04-16T22:40:22.859Z,6.43
2019-04-16T22:45:32.182Z,6.60
2019-04-16T22:50:34.724Z,6.50
2019-04-16T22:55:37.717Z,7.00
2019-04-16T23:00:44.500Z,5.97
2019-04-16T23:05:46.198Z,6.43
2019-04-16T23:10:50.656Z,6.43
2019-04-16T23:15:51.243Z,5.80
2019-04-16T23:20:52.822Z,6.07
2019-04-16T23:25:59.001Z,6.83
2019-04-16T23:30:57.910Z,5.93
2019-04-16T23:35:59.473Z,6.17
2019-04-16T23:41:01.159Z,6.13
2019-04-16T23:46:25.572Z,5.97
2019-04-16T23:51:36.950Z,5.80
2019-04-16T23:56:44.827Z,5.67
